Time;durP1;ratioP1;P1;durP2;ratioP2;P2;SDS_P1;SDS_P2;PMS_P1;PMS_P2;Temp;Humidity;BMP_temperature;BMP_pressure;BME280_temperature;BME280_humidity;BME280_pressure;Samples;Min_cycle;Max_cycle;Signal;HPM_P1;HPM_P2
2022/03/26 00:00:58;;;;;;;23.05;10.93;;;;;;;;;;5034650;28;20088;-67
2022/03/26 00:03:25;;;;;;;21.90;10.68;;;;;;;;;;5021346;28;20055;-67
2022/03/26 00:05:51;;;;;;;20.25;10.68;;;;;;;;;;5028872;28;20447;-67
2022/03/26 00:08:17;;;;;;;23.15;10.90;;;;;;;;;;5042296;28;20048;-67
2022/03/26 00:10:45;;;;;;;27.00;13.70;;;;;;;;;;5032422;28;20068;-67
2022/03/26 00:13:11;;;;;;;28.35;13.40;;;;;;;;;;5031496;28;20249;-67
2022/03/26 00:15:38;;;;;;;27.58;11.77;;;;;;;;;;5042246;28;20055;-67
2022/03/26 00:18:05;;;;;;;23.15;11.25;;;;;;;;;;5033122;28;20390;-67
2022/03/26 00:20:31;;;;;;;27.20;11.63;;;;;;;;;;5042380;28;20075;-67
2022/03/26 00:22:57;;;;;;;25.63;10.57;;;;;;;;;;5040196;28;20080;-67
2022/03/26 00:25:23;;;;;;;18.92;10.50;;;;;;;;;;5051137;28;20495;-68
2022/03/26 00:27:50;;;;;;;24.88;11.30;;;;;;;;;;5033014;28;20057;-68
2022/03/26 00:30:17;;;;;;;26.77;10.48;;;;;;;;;;5028156;28;20050;-67
2022/03/26 00:32:43;;;;;;;22.42;10.73;;;;;;;;;;5049030;28;20053;-67
2022/03/26 00:35:09;;;;;;;25.88;11.63;;;;;;;;;;5027763;28;20061;-67
2022/03/26 00:37:40;;;;;;;33.97;12.20;;;;;;;;;;5038877;28;20044;-67
2022/03/26 00:40:07;;;;;;;23.67;11.13;;;;;;;;;;5032974;28;20079;-67
2022/03/26 00:42:33;;;;;;;26.77;11.40;;;;;;;;;;5048223;28;20539;-67
2022/03/26 00:45:00;;;;;;;28.92;11.95;;;;;;;;;;5038455;28;20056;-67
2022/03/26 00:47:26;;;;;;;31.58;12.07;;;;;;;;;;5035162;28;20399;-67
2022/03/26 00:49:54;;;;;;;22.92;11.68;;;;;;;;;;5055351;28;20441;-67
2022/03/26 00:52:21;;;;;;;21.80;11.47;;;;;;;;;;5028732;28;20060;-67
2022/03/26 00:54:47;;;;;;;25.98;12.07;;;;;;;;;;5034702;28;20584;-67
2022/03/26 00:57:16;;;;;;;23.75;11.70;;;;;;;;;;5032654;28;20050;-67
2022/03/26 00:59:43;;;;;;;26.17;11.65;;;;;;;;;;5038431;28;20053;-67
2022/03/26 01:02:09;;;;;;;31.73;12.68;;;;;;;;;;5041542;28;20056;-67
2022/03/26 01:04:38;;;;;;;22.88;11.93;;;;;;;;;;5050678;28;20053;-67
2022/03/26 01:07:04;;;;;;;23.88;11.68;;;;;;;;;;5025140;28;20053;-67
2022/03/26 01:09:31;;;;;;;28.58;12.75;;;;;;;;;;5043457;28;20049;-67
2022/03/26 01:11:57;;;;;;;27.95;13.43;;;;;;;;;;5042760;28;20463;-67
2022/03/26 01:14:24;;;;;;;22.15;11.18;;;;;;;;;;5032773;28;20052;-67
2022/03/26 01:16:50;;;;;;;28.23;13.60;;;;;;;;;;5050244;28;20045;-67
2022/03/26 01:19:17;;;;;;;21.95;11.43;;;;;;;;;;5042508;28;20433;-68
2022/03/26 01:21:43;;;;;;;27.35;12.25;;;;;;;;;;5034554;28;20779;-67
2022/03/26 01:24:09;;;;;;;23.00;12.25;;;;;;;;;;5032769;28;20345;-67
2022/03/26 01:26:36;;;;;;;29.15;13.02;;;;;;;;;;5034733;28;20051;-67
2022/03/26 01:29:03;;;;;;;31.65;13.43;;;;;;;;;;5040736;28;20045;-67
2022/03/26 01:31:30;;;;;;;24.23;13.02;;;;;;;;;;5044293;28;20044;-67
2022/03/26 01:33:56;;;;;;;26.00;11.80;;;;;;;;;;5038096;28;20060;-67
2022/03/26 01:36:22;;;;;;;33.55;12.88;;;;;;;;;;5041541;28;20461;-68
2022/03/26 01:38:49;;;;;;;27.83;13.48;;;;;;;;;;5020066;28;20055;-67
2022/03/26 01:41:17;;;;;;;24.85;13.55;;;;;;;;;;5046690;28;20478;-67
2022/03/26 01:43:44;;;;;;;26.77;13.13;;;;;;;;;;5026733;28;20360;-67
2022/03/26 01:46:11;;;;;;;32.42;14.10;;;;;;;;;;5033850;28;20139;-67
2022/03/26 01:48:38;;;;;;;25.48;13.50;;;;;;;;;;5043756;28;20088;-67
2022/03/26 01:51:14;;;;;;;32.08;14.95;;;;;;;;;;5036279;28;20048;-67
2022/03/26 01:53:42;;;;;;;27.00;15.05;;;;;;;;;;5037864;28;20045;-67
2022/03/26 01:56:09;;;;;;;27.13;15.10;;;;;;;;;;5040394;28;20048;-67
2022/03/26 01:58:35;;;;;;;29.50;14.68;;;;;;;;;;5045252;28;20387;-67
2022/03/26 02:01:01;;;;;;;30.40;15.55;;;;;;;;;;5043562;28;20048;-68
2022/03/26 02:03:28;;;;;;;29.23;14.88;;;;;;;;;;5043811;28;20048;-68
2022/03/26 02:05:55;;;;;;;26.90;13.98;;;;;;;;;;5056763;28;20434;-68
2022/03/26 02:08:22;;;;;;;28.33;14.82;;;;;;;;;;5037103;28;20549;-68
2022/03/26 02:10:48;;;;;;;28.30;14.10;;;;;;;;;;5046494;28;20490;-68
2022/03/26 02:13:15;;;;;;;28.33;14.50;;;;;;;;;;5029439;28;20134;-67
2022/03/26 02:15:41;;;;;;;32.75;15.60;;;;;;;;;;5032680;28;20053;-68
2022/03/26 02:18:09;;;;;;;27.73;14.18;;;;;;;;;;5037172;28;20045;-68
2022/03/26 02:20:35;;;;;;;32.75;15.18;;;;;;;;;;5040007;28;20625;-68
2022/03/26 02:23:02;;;;;;;31.33;14.90;;;;;;;;;;5040126;28;20052;-68
2022/03/26 02:25:28;;;;;;;27.23;14.30;;;;;;;;;;5035115;28;20048;-67
2022/03/26 02:27:55;;;;;;;38.80;16.45;;;;;;;;;;5047832;28;20515;-68
2022/03/26 02:30:21;;;;;;;37.40;19.35;;;;;;;;;;5032280;28;20041;-68
2022/03/26 02:32:47;;;;;;;38.72;20.58;;;;;;;;;;5044606;28;20068;-68
2022/03/26 02:35:14;;;;;;;35.05;16.92;;;;;;;;;;5043526;28;20052;-68
2022/03/26 02:37:40;;;;;;;30.33;15.18;;;;;;;;;;5039769;28;20517;-68
2022/03/26 02:40:07;;;;;;;33.17;14.88;;;;;;;;;;5043896;28;20049;-68
2022/03/26 02:42:34;;;;;;;29.17;13.95;;;;;;;;;;5026832;28;20257;-68
2022/03/26 02:45:01;;;;;;;32.60;15.40;;;;;;;;;;5035790;28;20050;-68
2022/03/26 02:47:27;;;;;;;33.58;15.55;;;;;;;;;;5036743;28;20049;-68
2022/03/26 02:49:54;;;;;;;32.60;15.95;;;;;;;;;;5050616;28;20060;-68
2022/03/26 02:52:22;;;;;;;28.70;15.52;;;;;;;;;;5045798;28;20055;-68
2022/03/26 02:54:48;;;;;;;33.90;16.38;;;;;;;;;;5036848;28;20060;-67
2022/03/26 02:57:15;;;;;;;31.10;15.68;;;;;;;;;;5047444;28;20064;-68
2022/03/26 02:59:41;;;;;;;32.53;15.85;;;;;;;;;;5030204;28;20423;-67
2022/03/26 03:02:09;;;;;;;30.83;15.45;;;;;;;;;;5041296;28;20044;-68
2022/03/26 03:04:36;;;;;;;36.40;17.85;;;;;;;;;;5028451;28;20087;-68
2022/03/26 03:07:02;;;;;;;35.20;18.73;;;;;;;;;;5040093;28;20247;-68
2022/03/26 03:09:29;;;;;;;38.80;18.92;;;;;;;;;;5031370;28;20049;-68
2022/03/26 03:11:55;;;;;;;34.97;18.65;;;;;;;;;;5033075;28;20045;-67
2022/03/26 03:14:22;;;;;;;33.80;16.73;;;;;;;;;;5033363;28;20145;-68
2022/03/26 03:16:49;;;;;;;32.08;16.25;;;;;;;;;;5032019;28;20053;-68
2022/03/26 03:19:16;;;;;;;35.43;16.20;;;;;;;;;;5049838;28;20102;-67
2022/03/26 03:21:42;;;;;;;33.85;15.63;;;;;;;;;;5040597;28;20059;-67
2022/03/26 03:24:09;;;;;;;35.55;15.38;;;;;;;;;;5033448;28;20049;-68
2022/03/26 03:26:35;;;;;;;31.25;15.45;;;;;;;;;;5044053;28;20060;-67
2022/03/26 03:29:02;;;;;;;35.47;15.02;;;;;;;;;;5032644;28;20052;-67
2022/03/26 03:31:28;;;;;;;36.13;16.70;;;;;;;;;;5053401;28;20414;-67
2022/03/26 03:33:55;;;;;;;32.22;16.10;;;;;;;;;;5033299;28;20056;-67
2022/03/26 03:36:22;;;;;;;27.08;14.30;;;;;;;;;;5041986;28;20049;-67
2022/03/26 03:38:48;;;;;;;27.67;14.70;;;;;;;;;;5036279;28;20054;-67
2022/03/26 03:41:15;;;;;;;31.85;15.32;;;;;;;;;;5038285;28;20127;-67
2022/03/26 03:43:41;;;;;;;35.47;15.05;;;;;;;;;;5053211;28;20040;-67
2022/03/26 03:46:08;;;;;;;31.98;16.38;;;;;;;;;;5064157;28;20376;-67
2022/03/26 03:48:34;;;;;;;32.58;15.80;;;;;;;;;;5053415;28;20053;-67
2022/03/26 03:51:01;;;;;;;34.47;15.55;;;;;;;;;;5030793;28;20255;-68
2022/03/26 03:53:27;;;;;;;31.20;15.57;;;;;;;;;;5041660;28;20502;-68
2022/03/26 03:55:53;;;;;;;30.88;15.35;;;;;;;;;;5023941;28;20477;-67
2022/03/26 03:58:19;;;;;;;34.47;15.32;;;;;;;;;;5028632;28;20045;-68
2022/03/26 04:00:46;;;;;;;32.97;15.77;;;;;;;;;;5051979;28;20386;-68
2022/03/26 04:03:13;;;;;;;34.75;15.23;;;;;;;;;;5025433;28;20198;-68
2022/03/26 04:05:40;;;;;;;33.42;16.23;;;;;;;;;;5034892;28;20045;-67
2022/03/26 04:08:06;;;;;;;39.42;17.15;;;;;;;;;;5030857;28;20049;-68
2022/03/26 04:10:33;;;;;;;30.95;14.63;;;;;;;;;;5036932;28;20148;-68
2022/03/26 04:12:59;;;;;;;30.67;15.20;;;;;;;;;;5032386;28;20049;-68
2022/03/26 04:15:26;;;;;;;32.63;16.08;;;;;;;;;;5012992;28;20040;-68
2022/03/26 04:17:54;;;;;;;30.42;15.45;;;;;;;;;;5026165;28;20049;-68
2022/03/26 04:20:20;;;;;;;36.35;15.73;;;;;;;;;;5041246;28;20484;-68
2022/03/26 04:22:47;;;;;;;32.33;15.40;;;;;;;;;;5032542;28;20056;-67
2022/03/26 04:25:13;;;;;;;27.95;14.93;;;;;;;;;;5030075;28;20513;-67
2022/03/26 04:27:43;;;;;;;33.00;14.43;;;;;;;;;;5026390;28;20065;-68
2022/03/26 04:30:10;;;;;;;35.15;15.02;;;;;;;;;;5023772;28;20132;-68
2022/03/26 04:32:36;;;;;;;33.45;15.68;;;;;;;;;;5030696;28;20049;-67
2022/03/26 04:35:03;;;;;;;29.30;15.85;;;;;;;;;;5046513;28;20136;-68
2022/03/26 04:37:29;;;;;;;33.03;15.55;;;;;;;;;;5026604;28;20443;-68
2022/03/26 04:39:56;;;;;;;36.95;16.10;;;;;;;;;;5035492;28;20045;-67
2022/03/26 04:42:22;;;;;;;36.00;15.98;;;;;;;;;;5038942;28;20048;-67
2022/03/26 04:44:48;;;;;;;32.28;16.05;;;;;;;;;;5021729;28;20049;-68
2022/03/26 04:47:15;;;;;;;32.95;15.80;;;;;;;;;;5039855;28;20052;-68
2022/03/26 04:49:41;;;;;;;28.27;14.52;;;;;;;;;;5028687;28;20053;-68
2022/03/26 04:52:08;;;;;;;33.25;15.35;;;;;;;;;;5039984;28;20509;-68
2022/03/26 04:54:34;;;;;;;30.13;14.85;;;;;;;;;;5028734;28;21135;-68
2022/03/26 04:57:00;;;;;;;27.38;14.75;;;;;;;;;;5043657;28;20478;-68
2022/03/26 04:59:27;;;;;;;28.48;14.38;;;;;;;;;;5036001;28;20068;-68
2022/03/26 05:01:53;;;;;;;30.65;15.60;;;;;;;;;;5028893;28;20059;-67
2022/03/26 05:04:19;;;;;;;28.13;14.00;;;;;;;;;;5039084;28;20063;-68
2022/03/26 05:06:46;;;;;;;30.58;15.27;;;;;;;;;;5028332;28;21076;-68
2022/03/26 05:09:12;;;;;;;40.47;16.48;;;;;;;;;;5039088;28;20049;-67
2022/03/26 05:11:38;;;;;;;30.70;14.18;;;;;;;;;;5034813;28;20048;-68
2022/03/26 05:14:05;;;;;;;30.13;14.82;;;;;;;;;;5031528;28;20053;-68
2022/03/26 05:16:31;;;;;;;28.55;14.93;;;;;;;;;;5033441;28;20068;-68
2022/03/26 05:18:57;;;;;;;32.80;15.75;;;;;;;;;;5037460;28;20099;-67
2022/03/26 05:21:24;;;;;;;27.20;14.85;;;;;;;;;;5035112;28;20049;-68
2022/03/26 05:23:51;;;;;;;35.72;16.80;;;;;;;;;;5024812;28;20049;-68
2022/03/26 05:26:21;;;;;;;28.60;14.45;;;;;;;;;;5029175;28;20045;-68
2022/03/26 05:28:47;;;;;;;32.72;14.93;;;;;;;;;;5031094;28;20535;-68
2022/03/26 05:31:14;;;;;;;29.92;15.75;;;;;;;;;;5036116;28;20391;-68
2022/03/26 05:33:40;;;;;;;32.33;14.40;;;;;;;;;;5033718;28;20048;-68
2022/03/26 05:36:07;;;;;;;31.70;14.77;;;;;;;;;;5033618;28;20053;-67
2022/03/26 05:38:34;;;;;;;32.55;15.75;;;;;;;;;;5035706;28;20139;-68
2022/03/26 05:41:00;;;;;;;30.35;15.98;;;;;;;;;;5017329;28;20045;-67
2022/03/26 05:43:26;;;;;;;31.27;14.75;;;;;;;;;;5035832;28;20042;-68
2022/03/26 05:45:52;;;;;;;29.92;15.35;;;;;;;;;;5033355;28;20485;-68
2022/03/26 05:48:19;;;;;;;31.45;15.70;;;;;;;;;;5032961;28;20044;-68
2022/03/26 05:50:46;;;;;;;28.38;14.90;;;;;;;;;;5019617;28;20422;-68
2022/03/26 05:53:12;;;;;;;32.55;15.30;;;;;;;;;;5037298;28;20048;-68
2022/03/26 05:55:39;;;;;;;28.63;15.48;;;;;;;;;;5026329;28;20151;-68
2022/03/26 05:58:05;;;;;;;31.35;15.02;;;;;;;;;;5038959;28;20135;-68
2022/03/26 06:00:31;;;;;;;30.50;15.13;;;;;;;;;;5038198;28;20056;-68
2022/03/26 06:02:58;;;;;;;26.95;14.63;;;;;;;;;;5038346;28;20123;-68
2022/03/26 06:05:24;;;;;;;31.60;16.10;;;;;;;;;;5032632;28;20216;-68
2022/03/26 06:07:51;;;;;;;40.40;16.02;;;;;;;;;;5039896;28;20056;-68
2022/03/26 06:10:17;;;;;;;34.80;15.55;;;;;;;;;;5032745;28;20048;-68
2022/03/26 06:12:44;;;;;;;33.00;15.55;;;;;;;;;;5041214;28;20053;-68
2022/03/26 06:15:11;;;;;;;27.27;15.90;;;;;;;;;;5045834;28;20055;-68
2022/03/26 06:17:57;;;;;;;33.35;15.75;;;;;;;;;;5032436;28;20052;-68
2022/03/26 06:20:23;;;;;;;36.92;15.65;;;;;;;;;;5054815;28;20053;-68
2022/03/26 06:22:49;;;;;;;33.85;14.55;;;;;;;;;;5027749;28;20045;-68
2022/03/26 06:25:16;;;;;;;31.00;15.63;;;;;;;;;;5045040;28;20065;-68
2022/03/26 06:27:42;;;;;;;30.98;14.82;;;;;;;;;;5036010;28;20426;-68
2022/03/26 06:30:10;;;;;;;33.97;16.30;;;;;;;;;;5041044;28;20053;-68
2022/03/26 06:32:36;;;;;;;38.05;17.55;;;;;;;;;;5017216;28;20060;-68
2022/03/26 06:35:02;;;;;;;32.60;16.23;;;;;;;;;;5023054;28;20051;-68
2022/03/26 06:37:29;;;;;;;34.50;17.38;;;;;;;;;;5030469;28;20075;-68
2022/03/26 06:39:55;;;;;;;39.22;17.27;;;;;;;;;;5038428;28;20053;-68
2022/03/26 06:42:21;;;;;;;40.17;17.15;;;;;;;;;;5037605;28;20044;-68
2022/03/26 06:44:48;;;;;;;40.05;17.73;;;;;;;;;;5031297;28;20044;-68
2022/03/26 06:47:14;;;;;;;34.15;16.95;;;;;;;;;;5037668;28;20519;-68
2022/03/26 06:49:41;;;;;;;35.75;17.27;;;;;;;;;;5042391;28;20057;-68
2022/03/26 06:52:08;;;;;;;36.13;18.08;;;;;;;;;;5037800;28;20092;-68
2022/03/26 06:54:34;;;;;;;36.30;18.00;;;;;;;;;;5040385;28;20052;-68
2022/03/26 06:57:01;;;;;;;38.38;18.83;;;;;;;;;;5050246;28;20044;-68
2022/03/26 06:59:28;;;;;;;39.05;19.52;;;;;;;;;;5031013;28;20167;-68
2022/03/26 07:01:54;;;;;;;37.72;19.77;;;;;;;;;;5043826;28;20057;-68
2022/03/26 07:04:20;;;;;;;41.17;21.75;;;;;;;;;;5031279;28;20104;-68
2022/03/26 07:06:47;;;;;;;55.40;22.23;;;;;;;;;;5038219;28;20418;-68
2022/03/26 07:09:13;;;;;;;51.40;23.00;;;;;;;;;;5038542;28;20606;-68
2022/03/26 07:11:40;;;;;;;47.17;23.88;;;;;;;;;;5046253;28;20064;-68
2022/03/26 07:14:06;;;;;;;46.15;22.25;;;;;;;;;;5025249;28;20059;-68
2022/03/26 07:16:32;;;;;;;51.53;24.92;;;;;;;;;;5040026;28;20049;-68
2022/03/26 07:18:59;;;;;;;50.35;24.90;;;;;;;;;;5053976;28;20401;-67
2022/03/26 07:21:25;;;;;;;46.58;22.40;;;;;;;;;;5056784;28;20056;-67
2022/03/26 07:23:52;;;;;;;50.97;24.08;;;;;;;;;;5050637;28;20075;-68
2022/03/26 07:26:18;;;;;;;56.30;25.45;;;;;;;;;;5029710;28;20668;-68
2022/03/26 07:28:45;;;;;;;55.72;25.70;;;;;;;;;;5053241;28;20053;-68
2022/03/26 07:31:11;;;;;;;50.55;25.50;;;;;;;;;;5038686;28;20049;-67
2022/03/26 07:33:37;;;;;;;54.75;26.30;;;;;;;;;;5007786;28;20048;-68
2022/03/26 07:36:04;;;;;;;48.58;25.23;;;;;;;;;;5039611;28;20064;-68
2022/03/26 07:38:30;;;;;;;56.60;26.25;;;;;;;;;;5031253;28;20049;-68
2022/03/26 07:40:57;;;;;;;58.38;26.90;;;;;;;;;;5035926;28;20068;-68
2022/03/26 07:43:23;;;;;;;48.10;23.70;;;;;;;;;;5043613;28;21015;-68
2022/03/26 07:45:49;;;;;;;56.45;26.90;;;;;;;;;;5041151;28;20738;-68
2022/03/26 07:48:16;;;;;;;46.40;24.00;;;;;;;;;;5053514;28;20053;-68
2022/03/26 07:50:42;;;;;;;49.33;25.77;;;;;;;;;;5033105;28;20053;-67
2022/03/26 07:53:09;;;;;;;55.25;27.17;;;;;;;;;;5043046;28;20053;-68
2022/03/26 07:55:36;;;;;;;50.92;26.55;;;;;;;;;;5022506;28;20438;-68
2022/03/26 07:58:02;;;;;;;63.20;25.52;;;;;;;;;;5040278;28;20068;-68
2022/03/26 08:00:28;;;;;;;51.80;23.88;;;;;;;;;;5034961;28;20056;-68
2022/03/26 08:02:55;;;;;;;46.55;22.52;;;;;;;;;;5029551;28;20055;-68
2022/03/26 08:05:21;;;;;;;52.42;23.58;;;;;;;;;;5038840;28;20049;-68
2022/03/26 08:07:47;;;;;;;53.45;25.50;;;;;;;;;;5024507;28;20049;-68
2022/03/26 08:10:14;;;;;;;52.65;24.08;;;;;;;;;;5035909;28;20037;-68
2022/03/26 08:12:40;;;;;;;42.35;19.95;;;;;;;;;;5034076;28;20059;-68
2022/03/26 08:15:07;;;;;;;52.15;23.85;;;;;;;;;;5040837;28;20131;-68
2022/03/26 08:17:33;;;;;;;53.38;25.75;;;;;;;;;;5035954;28;20135;-68
2022/03/26 08:19:59;;;;;;;57.92;24.83;;;;;;;;;;5030249;28;20073;-68
2022/03/26 08:22:26;;;;;;;55.33;25.45;;;;;;;;;;5028674;28;20454;-68
2022/03/26 08:24:52;;;;;;;55.72;26.42;;;;;;;;;;5024457;28;20470;-68
2022/03/26 08:27:19;;;;;;;53.85;24.23;;;;;;;;;;5037136;28;20067;-68
2022/03/26 08:29:46;;;;;;;56.15;26.00;;;;;;;;;;5029358;28;20049;-68
2022/03/26 08:32:12;;;;;;;55.85;25.95;;;;;;;;;;5033940;28;20084;-68
2022/03/26 08:34:39;;;;;;;53.75;24.33;;;;;;;;;;5026737;28;20139;-68
2022/03/26 08:37:05;;;;;;;50.03;22.90;;;;;;;;;;5038652;28;20052;-68
2022/03/26 08:39:31;;;;;;;54.10;23.52;;;;;;;;;;5040624;28;20052;-68
2022/03/26 08:41:58;;;;;;;52.58;24.23;;;;;;;;;;5020600;28;20518;-68
2022/03/26 08:44:24;;;;;;;59.08;24.75;;;;;;;;;;5046844;28;20051;-68
2022/03/26 08:46:51;;;;;;;51.80;24.42;;;;;;;;;;5022384;28;20500;-68
2022/03/26 08:49:17;;;;;;;51.88;21.63;;;;;;;;;;5027997;28;20052;-68
2022/03/26 08:51:44;;;;;;;46.22;21.00;;;;;;;;;;5031442;28;20591;-68
2022/03/26 08:54:10;;;;;;;49.00;20.90;;;;;;;;;;5032777;28;20050;-68
2022/03/26 08:56:37;;;;;;;49.80;22.92;;;;;;;;;;5031847;28;20506;-68
2022/03/26 08:59:03;;;;;;;44.58;22.70;;;;;;;;;;5028092;28;20084;-69
2022/03/26 09:01:29;;;;;;;44.33;23.02;;;;;;;;;;5031099;28;20045;-68
2022/03/26 09:03:56;;;;;;;45.45;20.42;;;;;;;;;;5033525;28;20518;-68
2022/03/26 09:06:23;;;;;;;45.25;22.17;;;;;;;;;;5036345;28;20053;-68
2022/03/26 09:08:50;;;;;;;47.17;21.85;;;;;;;;;;5034759;28;20146;-69
2022/03/26 09:11:17;;;;;;;52.58;23.42;;;;;;;;;;5019862;28;20057;-68
2022/03/26 09:13:44;;;;;;;42.25;19.55;;;;;;;;;;5025113;28;20048;-68
2022/03/26 09:16:10;;;;;;;54.40;22.85;;;;;;;;;;5020709;28;20095;-68
2022/03/26 09:18:36;;;;;;;48.65;20.83;;;;;;;;;;5043192;28;20395;-68
2022/03/26 09:21:02;;;;;;;46.72;21.45;;;;;;;;;;5033252;28;20231;-68
2022/03/26 09:23:31;;;;;;;50.38;22.85;;;;;;;;;;5033656;28;20432;-68
2022/03/26 09:25:59;;;;;;;41.78;20.35;;;;;;;;;;5035847;28;20053;-68
2022/03/26 09:28:26;;;;;;;44.67;21.02;;;;;;;;;;5032831;28;20064;-68
2022/03/26 09:30:52;;;;;;;42.22;20.65;;;;;;;;;;5040710;28;20049;-69
2022/03/26 09:33:18;;;;;;;41.45;20.30;;;;;;;;;;5036625;28;20056;-68
2022/03/26 09:35:45;;;;;;;41.20;21.25;;;;;;;;;;5043296;28;20041;-68
2022/03/26 09:38:11;;;;;;;41.42;19.60;;;;;;;;;;5036181;28;20529;-69
2022/03/26 09:40:40;;;;;;;37.92;19.15;;;;;;;;;;5031021;28;20051;-69
2022/03/26 09:43:07;;;;;;;32.33;16.85;;;;;;;;;;5040975;28;20056;-69
2022/03/26 09:45:33;;;;;;;35.65;17.55;;;;;;;;;;5033594;28;20085;-68
2022/03/26 09:47:59;;;;;;;34.20;17.17;;;;;;;;;;5043026;28;20041;-69
2022/03/26 09:50:26;;;;;;;34.53;18.08;;;;;;;;;;5045788;28;20052;-69
2022/03/26 09:52:52;;;;;;;33.28;17.45;;;;;;;;;;5043966;28;20040;-68
2022/03/26 09:55:21;;;;;;;30.77;16.90;;;;;;;;;;5037962;28;20056;-69
2022/03/26 09:57:48;;;;;;;35.38;18.02;;;;;;;;;;5052158;28;20054;-69
2022/03/26 10:00:15;;;;;;;35.65;17.35;;;;;;;;;;5042931;28;20053;-69
2022/03/26 10:02:41;;;;;;;37.28;18.13;;;;;;;;;;5042771;28;20062;-69
2022/03/26 10:05:08;;;;;;;27.58;16.15;;;;;;;;;;5044628;28;20132;-69
2022/03/26 10:07:34;;;;;;;33.45;18.40;;;;;;;;;;5023880;28;20577;-69
2022/03/26 10:10:02;;;;;;;32.53;17.35;;;;;;;;;;5035675;28;20111;-70
2022/03/26 10:12:28;;;;;;;33.55;16.52;;;;;;;;;;5054614;28;20390;-69
2022/03/26 10:14:59;;;;;;;28.80;16.38;;;;;;;;;;5035496;28;20056;-69
2022/03/26 10:17:27;;;;;;;29.83;16.75;;;;;;;;;;5038807;28;20049;-69
2022/03/26 10:19:57;;;;;;;31.00;16.75;;;;;;;;;;5042376;28;20045;-68
2022/03/26 10:22:25;;;;;;;28.60;17.17;;;;;;;;;;5053748;28;20052;-69
2022/03/26 10:24:52;;;;;;;32.75;16.70;;;;;;;;;;5038336;28;20558;-69
2022/03/26 10:27:19;;;;;;;27.70;16.45;;;;;;;;;;5041522;28;20439;-69
2022/03/26 10:29:51;;;;;;;29.63;15.60;;;;;;;;;;5042654;28;20052;-69
2022/03/26 10:35:23;;;;;;;27.92;14.77;;;;;;;;;;5034775;28;20048;-69
2022/03/26 10:37:58;;;;;;;26.17;15.13;;;;;;;;;;5032228;28;20576;-70
2022/03/26 10:40:35;;;;;;;26.52;14.40;;;;;;;;;;5044913;28;20084;-69
2022/03/26 10:43:03;;;;;;;22.05;13.95;;;;;;;;;;5032970;28;20073;-70
2022/03/26 10:45:30;;;;;;;21.92;13.82;;;;;;;;;;5039236;28;20581;-69
2022/03/26 10:47:58;;;;;;;24.30;14.13;;;;;;;;;;5031256;28;20061;-69
2022/03/26 10:50:26;;;;;;;19.95;13.48;;;;;;;;;;5035062;28;20281;-69
2022/03/26 10:52:54;;;;;;;23.63;14.02;;;;;;;;;;5046027;28;20048;-70
2022/03/26 10:55:21;;;;;;;16.87;10.70;;;;;;;;;;5034363;28;20053;-70
2022/03/26 10:57:48;;;;;;;18.85;10.00;;;;;;;;;;5044470;28;20133;-69
2022/03/26 11:00:16;;;;;;;16.80;10.30;;;;;;;;;;5029142;28;20523;-69
2022/03/26 11:02:43;;;;;;;16.40;10.85;;;;;;;;;;5035676;28;20136;-69
2022/03/26 11:05:10;;;;;;;17.25;10.30;;;;;;;;;;5051367;28;20545;-69
2022/03/26 11:07:37;;;;;;;18.98;12.10;;;;;;;;;;5030277;28;20322;-69
2022/03/26 11:10:04;;;;;;;16.63;10.95;;;;;;;;;;5034516;28;20052;-70
2022/03/26 11:12:32;;;;;;;17.17;11.20;;;;;;;;;;5033954;28;20470;-70
2022/03/26 11:14:59;;;;;;;14.82;9.95;;;;;;;;;;5026198;28;20438;-70
2022/03/26 11:17:26;;;;;;;16.85;11.07;;;;;;;;;;5026131;28;20041;-69
2022/03/26 11:20:01;;;;;;;16.25;10.20;;;;;;;;;;5032990;28;20049;-70
2022/03/26 11:22:34;;;;;;;16.90;11.02;;;;;;;;;;5022469;28;21126;-69
2022/03/26 11:25:00;;;;;;;16.20;10.93;;;;;;;;;;5026061;28;20136;-70
2022/03/26 11:27:46;;;;;;;15.98;9.82;;;;;;;;;;5041888;28;20053;-70
2022/03/26 11:30:22;;;;;;;18.10;10.27;;;;;;;;;;5027801;28;20059;-70
2022/03/26 11:32:52;;;;;;;19.15;10.65;;;;;;;;;;5037561;28;20057;-70
2022/03/26 11:35:19;;;;;;;17.90;9.98;;;;;;;;;;5033683;28;20574;-70
2022/03/26 11:37:52;;;;;;;17.40;11.18;;;;;;;;;;5050142;28;20051;-70
2022/03/26 11:40:37;;;;;;;15.80;11.13;;;;;;;;;;5039244;28;20051;-70
2022/03/26 11:43:03;;;;;;;15.88;9.52;;;;;;;;;;5026851;28;20048;-70
2022/03/26 11:51:16;;;;;;;23.13;13.63;;;;;;;;;;5038333;28;20589;-71
2022/03/26 11:53:47;;;;;;;24.42;13.35;;;;;;;;;;5036002;28;20490;-70
2022/03/26 11:56:24;;;;;;;23.08;13.23;;;;;;;;;;5044733;28;20303;-70
2022/03/26 11:59:10;;;;;;;25.00;13.98;;;;;;;;;;5035427;28;20559;-70
2022/03/26 12:01:40;;;;;;;14.40;8.25;;;;;;;;;;5038268;28;20546;-70
2022/03/26 12:04:08;;;;;;;18.58;8.38;;;;;;;;;;5026786;28;20084;-70
2022/03/26 12:07:05;;;;;;;15.40;8.55;;;;;;;;;;5030742;28;20056;-70
2022/03/26 12:09:36;;;;;;;20.50;10.07;;;;;;;;;;5019754;28;20063;-70
2022/03/26 12:12:10;;;;;;;16.60;9.57;;;;;;;;;;5036518;28;20049;-69
2022/03/26 12:14:55;;;;;;;16.60;8.85;;;;;;;;;;5041223;28;20075;-69
2022/03/26 12:17:40;;;;;;;15.73;9.18;;;;;;;;;;5039245;28;20044;-70
2022/03/26 12:20:27;;;;;;;17.25;9.02;;;;;;;;;;5037323;28;20048;-70
2022/03/26 12:23:12;;;;;;;16.27;9.18;;;;;;;;;;5029239;28;20135;-70
2022/03/26 12:25:46;;;;;;;14.18;9.38;;;;;;;;;;5033495;28;20106;-69
2022/03/26 12:28:29;;;;;;;16.15;7.97;;;;;;;;;;5028366;28;20105;-70
2022/03/26 12:30:57;;;;;;;20.65;12.48;;;;;;;;;;5037971;28;20060;-68
2022/03/26 12:33:23;;;;;;;;;;;;;;;;;;5038824;28;20127;-69
2022/03/26 12:35:54;;;;;;;20.73;11.38;;;;;;;;;;5028387;28;20377;-69
2022/03/26 12:38:21;;;;;;;12.38;7.57;;;;;;;;;;5034827;28;20345;-65
2022/03/26 12:40:52;;;;;;;11.23;7.15;;;;;;;;;;5031759;28;20064;-69
2022/03/26 12:43:19;;;;;;;13.85;6.40;;;;;;;;;;5033588;28;20595;-69
2022/03/26 12:45:45;;;;;;;12.48;7.30;;;;;;;;;;5034689;28;20425;-68
2022/03/26 12:48:12;;;;;;;14.57;7.32;;;;;;;;;;5038016;28;20052;-70
2022/03/26 12:50:39;;;;;;;13.82;7.25;;;;;;;;;;5036874;28;20053;-68
2022/03/26 12:53:10;;;;;;;14.73;7.70;;;;;;;;;;5040236;28;20048;-69
2022/03/26 12:55:37;;;;;;;11.75;5.72;;;;;;;;;;5013449;28;20434;-69
2022/03/26 13:01:07;;;;;;;11.27;5.47;;;;;;;;;;5031759;28;20051;-69
2022/03/26 13:03:34;;;;;;;13.38;5.78;;;;;;;;;;5038377;28;20077;-69
2022/03/26 13:06:11;;;;;;;12.80;6.30;;;;;;;;;;5009720;28;20088;-69
2022/03/26 13:08:38;;;;;;;11.40;6.00;;;;;;;;;;5023374;28;20064;-69
2022/03/26 13:11:14;;;;;;;11.32;5.35;;;;;;;;;;5019553;28;20063;-69
2022/03/26 13:13:45;;;;;;;10.73;5.72;;;;;;;;;;5036319;28;20144;-69
2022/03/26 13:16:15;;;;;;;11.85;6.15;;;;;;;;;;5041206;28;20049;-69
2022/03/26 13:18:43;;;;;;;9.18;4.88;;;;;;;;;;5036265;28;20052;-69
2022/03/26 13:21:10;;;;;;;10.63;6.00;;;;;;;;;;5049670;28;20191;-69
2022/03/26 13:23:37;;;;;;;11.05;5.57;;;;;;;;;;5040142;28;20052;-69
2022/03/26 13:26:04;;;;;;;12.63;5.90;;;;;;;;;;5025236;28;20431;-69
2022/03/26 13:28:32;;;;;;;12.80;5.25;;;;;;;;;;5040539;28;20610;-69
2022/03/26 13:30:58;;;;;;;10.88;5.35;;;;;;;;;;5039997;28;20059;-69
2022/03/26 13:33:28;;;;;;;16.58;6.82;;;;;;;;;;5038819;28;20553;-69
2022/03/26 13:36:01;;;;;;;15.15;8.10;;;;;;;;;;5030918;28;20049;-69
2022/03/26 13:38:28;;;;;;;14.02;8.25;;;;;;;;;;5046247;28;20052;-69
2022/03/26 13:40:54;;;;;;;15.48;8.13;;;;;;;;;;5035082;28;20045;-69
2022/03/26 13:43:21;;;;;;;13.40;8.00;;;;;;;;;;5023316;28;20060;-69
2022/03/26 13:45:47;;;;;;;10.98;6.28;;;;;;;;;;5028725;28;20053;-70
2022/03/26 13:48:14;;;;;;;15.32;6.95;;;;;;;;;;5027465;28;20413;-70
2022/03/26 13:50:45;;;;;;;16.13;8.38;;;;;;;;;;5050067;28;20040;-69
2022/03/26 13:53:27;;;;;;;16.38;8.00;;;;;;;;;;5030692;28;20045;-68
2022/03/26 13:55:53;;;;;;;15.27;7.57;;;;;;;;;;5041732;28;20185;-69
2022/03/26 13:58:23;;;;;;;17.67;9.05;;;;;;;;;;5034536;28;20103;-69
2022/03/26 14:00:50;;;;;;;14.93;7.97;;;;;;;;;;5036053;28;20444;-69
2022/03/26 14:03:16;;;;;;;12.85;8.18;;;;;;;;;;5038124;28;20403;-69
2022/03/26 14:05:43;;;;;;;17.60;10.00;;;;;;;;;;5039768;28;20331;-69
2022/03/26 14:08:11;;;;;;;20.52;10.80;;;;;;;;;;5040492;28;20138;-69
2022/03/26 14:10:37;;;;;;;;;;;;;;;;;;5051386;28;20060;-69
2022/03/26 14:13:08;;;;;;;19.88;9.88;;;;;;;;;;5040048;28;19928;-69
2022/03/26 14:15:34;;;;;;;18.92;10.68;;;;;;;;;;5043675;28;20055;-69
2022/03/26 14:18:01;;;;;;;14.70;9.35;;;;;;;;;;5047242;28;20045;-69
2022/03/26 14:20:30;;;;;;;12.93;7.40;;;;;;;;;;5043383;28;20067;-69
2022/03/26 14:22:58;;;;;;;16.85;8.45;;;;;;;;;;5037870;28;20053;-69
2022/03/26 14:25:28;;;;;;;17.45;9.82;;;;;;;;;;5031228;28;20042;-69
2022/03/26 14:27:55;;;;;;;19.42;11.63;;;;;;;;;;5019519;28;20045;-69
2022/03/26 14:30:22;;;;;;;19.13;11.68;;;;;;;;;;5034022;28;20041;-69
2022/03/26 14:32:48;;;;;;;16.33;10.55;;;;;;;;;;5026896;28;20052;-69